sensor_id;sensor_type;location;lat;lon;timestamp;P1;durP1;ratioP1;P2;durP2;ratioP2
71572;SDS011;59408;51.032;9.410;2022-08-18T00:01:03;9.70;;;6.25;;
71572;SDS011;59408;51.032;9.410;2022-08-18T00:03:30;10.65;;;7.03;;
71572;SDS011;59408;51.032;9.410;2022-08-18T00:06:17;10.53;;;6.53;;
71572;SDS011;59408;51.032;9.410;2022-08-18T00:08:44;9.80;;;6.45;;
71572;SDS011;59408;51.032;9.410;2022-08-18T00:11:11;9.15;;;6.32;;
71572;SDS011;59408;51.032;9.410;2022-08-18T00:13:38;10.07;;;6.70;;
71572;SDS011;59408;51.032;9.410;2022-08-18T00:16:06;10.55;;;6.18;;
71572;SDS011;59408;51.032;9.410;2022-08-18T00:18:33;10.10;;;6.20;;
71572;SDS011;59408;51.032;9.410;2022-08-18T00:20:59;10.77;;;5.90;;
71572;SDS011;59408;51.032;9.410;2022-08-18T00:23:26;9.82;;;6.25;;
71572;SDS011;59408;51.032;9.410;2022-08-18T00:25:53;9.73;;;6.20;;
71572;SDS011;59408;51.032;9.410;2022-08-18T00:28:20;10.63;;;7.18;;
71572;SDS011;59408;51.032;9.410;2022-08-18T00:30:49;10.55;;;6.95;;
71572;SDS011;59408;51.032;9.410;2022-08-18T00:33:20;11.13;;;7.03;;
71572;SDS011;59408;51.032;9.410;2022-08-18T00:35:47;11.38;;;6.90;;
71572;SDS011;59408;51.032;9.410;2022-08-18T00:38:14;11.93;;;7.43;;
71572;SDS011;59408;51.032;9.410;2022-08-18T00:40:52;12.82;;;7.78;;
71572;SDS011;59408;51.032;9.410;2022-08-18T00:43:20;10.82;;;7.20;;
71572;SDS011;59408;51.032;9.410;2022-08-18T00:45:52;12.57;;;7.60;;
71572;SDS011;59408;51.032;9.410;2022-08-18T00:48:18;12.03;;;7.50;;
71572;SDS011;59408;51.032;9.410;2022-08-18T00:50:51;12.07;;;7.68;;
71572;SDS011;59408;51.032;9.410;2022-08-18T00:53:21;11.13;;;7.70;;
71572;SDS011;59408;51.032;9.410;2022-08-18T00:55:52;10.82;;;6.75;;
71572;SDS011;59408;51.032;9.410;2022-08-18T00:58:23;10.57;;;7.35;;
71572;SDS011;59408;51.032;9.410;2022-08-18T01:00:53;10.87;;;6.80;;
71572;SDS011;59408;51.032;9.410;2022-08-18T01:03:20;10.77;;;6.90;;
71572;SDS011;59408;51.032;9.410;2022-08-18T01:05:52;11.25;;;7.70;;
71572;SDS011;59408;51.032;9.410;2022-08-18T01:08:22;12.88;;;8.00;;
71572;SDS011;59408;51.032;9.410;2022-08-18T01:10:54;12.27;;;7.97;;
71572;SDS011;59408;51.032;9.410;2022-08-18T01:13:24;12.40;;;8.00;;
71572;SDS011;59408;51.032;9.410;2022-08-18T01:15:52;10.88;;;7.40;;
71572;SDS011;59408;51.032;9.410;2022-08-18T01:18:19;12.05;;;7.90;;
71572;SDS011;59408;51.032;9.410;2022-08-18T01:20:49;10.57;;;6.93;;
71572;SDS011;59408;51.032;9.410;2022-08-18T01:23:22;12.05;;;7.13;;
71572;SDS011;59408;51.032;9.410;2022-08-18T01:25:49;10.10;;;6.83;;
71572;SDS011;59408;51.032;9.410;2022-08-18T01:28:18;10.03;;;6.53;;
71572;SDS011;59408;51.032;9.410;2022-08-18T01:30:45;12.18;;;6.70;;
71572;SDS011;59408;51.032;9.410;2022-08-18T01:33:14;10.60;;;6.57;;
71572;SDS011;59408;51.032;9.410;2022-08-18T01:35:42;10.65;;;7.07;;
71572;SDS011;59408;51.032;9.410;2022-08-18T01:38:12;10.68;;;7.10;;
71572;SDS011;59408;51.032;9.410;2022-08-18T01:40:40;12.23;;;7.30;;
71572;SDS011;59408;51.032;9.410;2022-08-18T01:43:27;11.30;;;7.07;;
71572;SDS011;59408;51.032;9.410;2022-08-18T01:45:53;12.65;;;7.40;;
71572;SDS011;59408;51.032;9.410;2022-08-18T01:48:20;11.32;;;7.00;;
71572;SDS011;59408;51.032;9.410;2022-08-18T01:50:46;10.35;;;6.95;;
71572;SDS011;59408;51.032;9.410;2022-08-18T01:53:13;12.70;;;6.90;;
71572;SDS011;59408;51.032;9.410;2022-08-18T01:55:42;10.83;;;7.13;;
71572;SDS011;59408;51.032;9.410;2022-08-18T01:58:09;13.05;;;8.60;;
71572;SDS011;59408;51.032;9.410;2022-08-18T02:00:35;13.68;;;8.50;;
71572;SDS011;59408;51.032;9.410;2022-08-18T02:03:03;11.95;;;8.00;;
71572;SDS011;59408;51.032;9.410;2022-08-18T02:05:33;13.35;;;8.27;;
71572;SDS011;59408;51.032;9.410;2022-08-18T02:08:05;12.70;;;7.70;;
71572;SDS011;59408;51.032;9.410;2022-08-18T02:10:33;14.35;;;8.90;;
71572;SDS011;59408;51.032;9.410;2022-08-18T02:13:01;13.07;;;8.10;;
71572;SDS011;59408;51.032;9.410;2022-08-18T02:15:28;12.25;;;8.20;;
71572;SDS011;59408;51.032;9.410;2022-08-18T02:17:55;12.68;;;8.55;;
71572;SDS011;59408;51.032;9.410;2022-08-18T02:20:21;12.60;;;8.70;;
71572;SDS011;59408;51.032;9.410;2022-08-18T02:22:48;13.93;;;9.30;;
71572;SDS011;59408;51.032;9.410;2022-08-18T02:25:16;13.95;;;9.48;;
71572;SDS011;59408;51.032;9.410;2022-08-18T02:27:43;14.40;;;9.50;;
71572;SDS011;59408;51.032;9.410;2022-08-18T02:30:12;12.88;;;8.70;;
71572;SDS011;59408;51.032;9.410;2022-08-18T02:32:41;14.90;;;9.00;;
71572;SDS011;59408;51.032;9.410;2022-08-18T02:35:08;13.57;;;9.03;;
71572;SDS011;59408;51.032;9.410;2022-08-18T02:37:37;12.43;;;8.20;;
71572;SDS011;59408;51.032;9.410;2022-08-18T02:40:08;12.95;;;8.95;;
71572;SDS011;59408;51.032;9.410;2022-08-18T02:42:39;14.45;;;8.85;;
71572;SDS011;59408;51.032;9.410;2022-08-18T02:45:06;12.95;;;8.45;;
71572;SDS011;59408;51.032;9.410;2022-08-18T02:47:36;13.17;;;8.30;;
71572;SDS011;59408;51.032;9.410;2022-08-18T02:50:03;13.10;;;8.03;;
71572;SDS011;59408;51.032;9.410;2022-08-18T02:52:30;12.65;;;7.63;;
71572;SDS011;59408;51.032;9.410;2022-08-18T02:54:57;12.70;;;8.35;;
71572;SDS011;59408;51.032;9.410;2022-08-18T02:57:23;14.00;;;8.23;;
71572;SDS011;59408;51.032;9.410;2022-08-18T02:59:50;13.23;;;8.63;;
71572;SDS011;59408;51.032;9.410;2022-08-18T03:02:17;13.47;;;8.30;;
71572;SDS011;59408;51.032;9.410;2022-08-18T03:04:45;13.73;;;8.70;;
71572;SDS011;59408;51.032;9.410;2022-08-18T03:07:12;12.13;;;8.60;;
71572;SDS011;59408;51.032;9.410;2022-08-18T03:09:38;13.13;;;8.48;;
71572;SDS011;59408;51.032;9.410;2022-08-18T03:12:05;13.75;;;9.00;;
71572;SDS011;59408;51.032;9.410;2022-08-18T03:14:32;14.63;;;9.05;;
71572;SDS011;59408;51.032;9.410;2022-08-18T03:16:59;13.43;;;8.93;;
71572;SDS011;59408;51.032;9.410;2022-08-18T03:19:26;13.50;;;8.83;;
71572;SDS011;59408;51.032;9.410;2022-08-18T03:21:56;14.32;;;8.40;;
71572;SDS011;59408;51.032;9.410;2022-08-18T03:24:26;12.15;;;8.02;;
71572;SDS011;59408;51.032;9.410;2022-08-18T03:26:54;12.50;;;8.45;;
71572;SDS011;59408;51.032;9.410;2022-08-18T03:29:22;14.85;;;8.90;;
71572;SDS011;59408;51.032;9.410;2022-08-18T03:31:57;14.30;;;9.10;;
71572;SDS011;59408;51.032;9.410;2022-08-18T03:34:23;14.93;;;8.43;;
71572;SDS011;59408;51.032;9.410;2022-08-18T03:36:50;14.05;;;9.85;;
71572;SDS011;59408;51.032;9.410;2022-08-18T03:39:18;15.70;;;9.45;;
71572;SDS011;59408;51.032;9.410;2022-08-18T03:41:46;13.63;;;9.02;;
71572;SDS011;59408;51.032;9.410;2022-08-18T03:44:26;15.80;;;9.75;;
71572;SDS011;59408;51.032;9.410;2022-08-18T03:46:54;14.80;;;9.47;;
71572;SDS011;59408;51.032;9.410;2022-08-18T03:49:21;17.08;;;9.98;;
71572;SDS011;59408;51.032;9.410;2022-08-18T03:51:47;14.48;;;9.82;;
71572;SDS011;59408;51.032;9.410;2022-08-18T03:54:14;14.43;;;9.70;;
71572;SDS011;59408;51.032;9.410;2022-08-18T03:56:44;13.90;;;10.02;;
71572;SDS011;59408;51.032;9.410;2022-08-18T03:59:14;15.57;;;9.47;;
71572;SDS011;59408;51.032;9.410;2022-08-18T04:01:42;14.97;;;9.93;;
71572;SDS011;59408;51.032;9.410;2022-08-18T04:04:11;15.93;;;10.02;;
71572;SDS011;59408;51.032;9.410;2022-08-18T04:06:40;15.35;;;9.73;;
71572;SDS011;59408;51.032;9.410;2022-08-18T04:09:10;15.60;;;10.43;;
71572;SDS011;59408;51.032;9.410;2022-08-18T04:11:39;15.00;;;10.15;;
71572;SDS011;59408;51.032;9.410;2022-08-18T04:14:09;17.10;;;11.13;;
71572;SDS011;59408;51.032;9.410;2022-08-18T04:16:36;17.27;;;11.60;;
71572;SDS011;59408;51.032;9.410;2022-08-18T04:19:04;19.27;;;11.30;;
71572;SDS011;59408;51.032;9.410;2022-08-18T04:21:33;16.52;;;10.48;;
71572;SDS011;59408;51.032;9.410;2022-08-18T04:24:02;20.17;;;12.77;;
71572;SDS011;59408;51.032;9.410;2022-08-18T04:26:30;17.47;;;11.73;;
71572;SDS011;59408;51.032;9.410;2022-08-18T04:28:57;18.77;;;11.23;;
71572;SDS011;59408;51.032;9.410;2022-08-18T04:31:25;18.25;;;11.13;;
71572;SDS011;59408;51.032;9.410;2022-08-18T04:33:51;17.02;;;11.93;;
71572;SDS011;59408;51.032;9.410;2022-08-18T04:36:18;17.85;;;11.60;;
71572;SDS011;59408;51.032;9.410;2022-08-18T04:38:46;18.30;;;11.38;;
71572;SDS011;59408;51.032;9.410;2022-08-18T04:41:12;18.27;;;11.13;;
71572;SDS011;59408;51.032;9.410;2022-08-18T04:43:39;14.75;;;10.15;;
71572;SDS011;59408;51.032;9.410;2022-08-18T04:46:06;15.20;;;10.57;;
71572;SDS011;59408;51.032;9.410;2022-08-18T04:48:36;15.93;;;10.38;;
71572;SDS011;59408;51.032;9.410;2022-08-18T04:51:05;14.98;;;10.25;;
71572;SDS011;59408;51.032;9.410;2022-08-18T04:53:34;16.30;;;10.90;;
71572;SDS011;59408;51.032;9.410;2022-08-18T04:56:01;14.97;;;10.40;;
71572;SDS011;59408;51.032;9.410;2022-08-18T04:58:28;15.77;;;9.90;;
71572;SDS011;59408;51.032;9.410;2022-08-18T05:00:56;17.10;;;11.48;;
71572;SDS011;59408;51.032;9.410;2022-08-18T05:03:24;18.38;;;11.95;;
71572;SDS011;59408;51.032;9.410;2022-08-18T05:05:52;19.27;;;11.55;;
71572;SDS011;59408;51.032;9.410;2022-08-18T05:08:19;19.00;;;12.67;;
71572;SDS011;59408;51.032;9.410;2022-08-18T05:10:46;17.13;;;11.90;;
71572;SDS011;59408;51.032;9.410;2022-08-18T05:13:13;18.27;;;12.18;;
71572;SDS011;59408;51.032;9.410;2022-08-18T05:15:39;20.25;;;11.73;;
71572;SDS011;59408;51.032;9.410;2022-08-18T05:18:26;19.88;;;13.20;;
71572;SDS011;59408;51.032;9.410;2022-08-18T05:20:54;20.60;;;14.05;;
71572;SDS011;59408;51.032;9.410;2022-08-18T05:23:22;22.33;;;14.50;;
71572;SDS011;59408;51.032;9.410;2022-08-18T05:25:49;22.60;;;14.60;;
71572;SDS011;59408;51.032;9.410;2022-08-18T05:28:22;24.60;;;15.70;;
71572;SDS011;59408;51.032;9.410;2022-08-18T05:30:49;24.13;;;15.38;;
71572;SDS011;59408;51.032;9.410;2022-08-18T05:33:15;23.92;;;16.73;;
71572;SDS011;59408;51.032;9.410;2022-08-18T05:35:43;24.73;;;16.55;;
71572;SDS011;59408;51.032;9.410;2022-08-18T05:38:23;23.27;;;15.27;;
71572;SDS011;59408;51.032;9.410;2022-08-18T05:41:01;24.90;;;15.88;;
71572;SDS011;59408;51.032;9.410;2022-08-18T05:43:39;23.27;;;13.95;;
71572;SDS011;59408;51.032;9.410;2022-08-18T05:46:17;21.10;;;14.68;;
71572;SDS011;59408;51.032;9.410;2022-08-18T05:48:47;24.90;;;15.07;;
71572;SDS011;59408;51.032;9.410;2022-08-18T05:51:14;21.63;;;15.77;;
71572;SDS011;59408;51.032;9.410;2022-08-18T05:53:45;21.50;;;14.95;;
71572;SDS011;59408;51.032;9.410;2022-08-18T05:56:12;22.65;;;15.23;;
71572;SDS011;59408;51.032;9.410;2022-08-18T05:58:40;21.70;;;14.43;;
71572;SDS011;59408;51.032;9.410;2022-08-18T06:01:12;21.75;;;15.27;;
71572;SDS011;59408;51.032;9.410;2022-08-18T06:03:42;22.67;;;14.77;;
71572;SDS011;59408;51.032;9.410;2022-08-18T06:06:14;20.93;;;15.40;;
71572;SDS011;59408;51.032;9.410;2022-08-18T06:08:46;24.65;;;16.23;;
71572;SDS011;59408;51.032;9.410;2022-08-18T06:11:17;25.40;;;16.73;;
71572;SDS011;59408;51.032;9.410;2022-08-18T06:13:48;22.95;;;16.10;;
71572;SDS011;59408;51.032;9.410;2022-08-18T06:16:17;22.73;;;15.98;;
71572;SDS011;59408;51.032;9.410;2022-08-18T06:18:51;28.77;;;19.20;;
71572;SDS011;59408;51.032;9.410;2022-08-18T06:21:27;27.80;;;17.73;;
71572;SDS011;59408;51.032;9.410;2022-08-18T06:24:07;24.27;;;16.55;;
71572;SDS011;59408;51.032;9.410;2022-08-18T06:26:43;22.88;;;15.43;;
71572;SDS011;59408;51.032;9.410;2022-08-18T06:29:19;27.67;;;17.77;;
71572;SDS011;59408;51.032;9.410;2022-08-18T06:31:59;25.20;;;17.33;;
71572;SDS011;59408;51.032;9.410;2022-08-18T06:34:37;28.03;;;18.30;;
71572;SDS011;59408;51.032;9.410;2022-08-18T06:37:15;24.95;;;17.50;;
71572;SDS011;59408;51.032;9.410;2022-08-18T06:39:50;27.55;;;17.92;;
71572;SDS011;59408;51.032;9.410;2022-08-18T06:42:17;31.02;;;21.65;;
71572;SDS011;59408;51.032;9.410;2022-08-18T06:44:46;28.77;;;19.98;;
71572;SDS011;59408;51.032;9.410;2022-08-18T06:47:17;29.00;;;20.33;;
71572;SDS011;59408;51.032;9.410;2022-08-18T06:49:54;30.80;;;20.50;;
71572;SDS011;59408;51.032;9.410;2022-08-18T06:52:28;27.85;;;19.75;;
71572;SDS011;59408;51.032;9.410;2022-08-18T06:54:58;34.97;;;21.73;;
71572;SDS011;59408;51.032;9.410;2022-08-18T06:57:28;30.77;;;21.67;;
71572;SDS011;59408;51.032;9.410;2022-08-18T06:59:57;34.35;;;22.77;;
71572;SDS011;59408;51.032;9.410;2022-08-18T07:02:31;39.20;;;25.23;;
71572;SDS011;59408;51.032;9.410;2022-08-18T07:05:05;45.50;;;27.17;;
71572;SDS011;59408;51.032;9.410;2022-08-18T07:07:40;42.25;;;28.70;;
71572;SDS011;59408;51.032;9.410;2022-08-18T07:10:28;43.10;;;27.85;;
71572;SDS011;59408;51.032;9.410;2022-08-18T07:15:50;43.57;;;27.40;;
71572;SDS011;59408;51.032;9.410;2022-08-18T07:18:21;40.37;;;27.17;;
71572;SDS011;59408;51.032;9.410;2022-08-18T07:20:52;62.90;;;37.45;;
71572;SDS011;59408;51.032;9.410;2022-08-18T07:23:29;65.05;;;38.17;;
71572;SDS011;59408;51.032;9.410;2022-08-18T07:26:04;65.43;;;37.83;;
71572;SDS011;59408;51.032;9.410;2022-08-18T07:28:35;61.58;;;36.55;;
71572;SDS011;59408;51.032;9.410;2022-08-18T07:34:00;59.20;;;35.13;;
71572;SDS011;59408;51.032;9.410;2022-08-18T07:36:31;59.33;;;35.25;;
71572;SDS011;59408;51.032;9.410;2022-08-18T07:39:02;57.65;;;35.13;;
71572;SDS011;59408;51.032;9.410;2022-08-18T07:41:35;54.05;;;34.55;;
71572;SDS011;59408;51.032;9.410;2022-08-18T07:44:10;59.97;;;33.70;;
71572;SDS011;59408;51.032;9.410;2022-08-18T07:46:45;59.67;;;36.97;;
71572;SDS011;59408;51.032;9.410;2022-08-18T07:49:21;63.67;;;37.28;;
71572;SDS011;59408;51.032;9.410;2022-08-18T07:51:52;56.75;;;36.42;;
71572;SDS011;59408;51.032;9.410;2022-08-18T07:54:29;61.05;;;36.60;;
71572;SDS011;59408;51.032;9.410;2022-08-18T07:57:22;57.63;;;36.53;;
71572;SDS011;59408;51.032;9.410;2022-08-18T08:00:09;55.47;;;35.57;;
71572;SDS011;59408;51.032;9.410;2022-08-18T08:02:52;64.50;;;37.53;;
71572;SDS011;59408;51.032;9.410;2022-08-18T08:05:35;58.95;;;36.33;;
71572;SDS011;59408;51.032;9.410;2022-08-18T08:08:10;60.15;;;36.05;;
71572;SDS011;59408;51.032;9.410;2022-08-18T08:10:54;58.83;;;35.40;;
71572;SDS011;59408;51.032;9.410;2022-08-18T08:13:35;61.37;;;36.77;;
71572;SDS011;59408;51.032;9.410;2022-08-18T08:16:22;61.30;;;36.08;;
71572;SDS011;59408;51.032;9.410;2022-08-18T08:18:58;61.42;;;36.58;;
71572;SDS011;59408;51.032;9.410;2022-08-18T08:21:43;60.95;;;36.60;;
71572;SDS011;59408;51.032;9.410;2022-08-18T08:24:19;60.65;;;36.40;;
71572;SDS011;59408;51.032;9.410;2022-08-18T08:26:52;59.20;;;36.27;;
71572;SDS011;59408;51.032;9.410;2022-08-18T08:29:32;61.67;;;38.03;;
71572;SDS011;59408;51.032;9.410;2022-08-18T08:32:05;62.63;;;37.53;;
71572;SDS011;59408;51.032;9.410;2022-08-18T08:34:38;68.85;;;39.10;;
71572;SDS011;59408;51.032;9.410;2022-08-18T08:37:11;71.10;;;41.10;;
71572;SDS011;59408;51.032;9.410;2022-08-18T08:39:44;63.47;;;38.22;;
71572;SDS011;59408;51.032;9.410;2022-08-18T08:42:16;64.67;;;38.43;;
71572;SDS011;59408;51.032;9.410;2022-08-18T08:45:02;66.50;;;38.70;;
71572;SDS011;59408;51.032;9.410;2022-08-18T08:47:35;62.95;;;37.97;;
71572;SDS011;59408;51.032;9.410;2022-08-18T08:50:08;61.17;;;36.83;;
71572;SDS011;59408;51.032;9.410;2022-08-18T08:52:41;62.85;;;38.20;;
71572;SDS011;59408;51.032;9.410;2022-08-18T08:55:13;66.70;;;38.10;;
71572;SDS011;59408;51.032;9.410;2022-08-18T08:57:45;68.43;;;40.07;;
71572;SDS011;59408;51.032;9.410;2022-08-18T09:00:16;65.10;;;38.63;;
71572;SDS011;59408;51.032;9.410;2022-08-18T09:03:00;65.32;;;40.22;;
71572;SDS011;59408;51.032;9.410;2022-08-18T09:05:36;63.42;;;38.00;;
71572;SDS011;59408;51.032;9.410;2022-08-18T09:08:11;61.78;;;35.80;;
71572;SDS011;59408;51.032;9.410;2022-08-18T09:11:05;67.90;;;38.33;;
71572;SDS011;59408;51.032;9.410;2022-08-18T09:14:10;67.25;;;39.28;;
71572;SDS011;59408;51.032;9.410;2022-08-18T09:17:08;69.00;;;38.85;;
71572;SDS011;59408;51.032;9.410;2022-08-18T09:19:50;67.32;;;39.13;;
71572;SDS011;59408;51.032;9.410;2022-08-18T09:22:30;65.63;;;38.80;;
71572;SDS011;59408;51.032;9.410;2022-08-18T09:25:08;65.90;;;38.63;;
71572;SDS011;59408;51.032;9.410;2022-08-18T09:27:37;62.40;;;37.23;;
71572;SDS011;59408;51.032;9.410;2022-08-18T09:30:38;68.28;;;40.28;;
71572;SDS011;59408;51.032;9.410;2022-08-18T09:33:19;65.75;;;39.33;;
71572;SDS011;59408;51.032;9.410;2022-08-18T09:36:02;66.78;;;39.28;;
71572;SDS011;59408;51.032;9.410;2022-08-18T09:38:36;59.65;;;36.10;;
71572;SDS011;59408;51.032;9.410;2022-08-18T09:41:16;63.77;;;38.40;;
71572;SDS011;59408;51.032;9.410;2022-08-18T09:43:53;67.63;;;39.87;;
71572;SDS011;59408;51.032;9.410;2022-08-18T09:49:38;59.88;;;36.33;;
71572;SDS011;59408;51.032;9.410;2022-08-18T10:01:36;64.38;;;36.55;;
71572;SDS011;59408;51.032;9.410;2022-08-18T10:10:09;69.70;;;38.22;;
71572;SDS011;59408;51.032;9.410;2022-08-18T10:13:07;62.47;;;35.93;;
71572;SDS011;59408;51.032;9.410;2022-08-18T10:15:55;65.23;;;38.07;;
71572;SDS011;59408;51.032;9.410;2022-08-18T10:24:34;57.70;;;33.72;;
71572;SDS011;59408;51.032;9.410;2022-08-18T10:27:04;57.22;;;33.72;;
71572;SDS011;59408;51.032;9.410;2022-08-18T10:29:47;52.97;;;32.03;;
71572;SDS011;59408;51.032;9.410;2022-08-18T10:32:21;54.27;;;31.77;;
71572;SDS011;59408;51.032;9.410;2022-08-18T10:38:28;53.58;;;31.63;;
71572;SDS011;59408;51.032;9.410;2022-08-18T10:41:22;50.50;;;31.13;;
71572;SDS011;59408;51.032;9.410;2022-08-18T10:43:56;51.90;;;31.20;;
71572;SDS011;59408;51.032;9.410;2022-08-18T10:46:26;56.77;;;32.30;;
71572;SDS011;59408;51.032;9.410;2022-08-18T10:49:00;53.15;;;32.58;;
71572;SDS011;59408;51.032;9.410;2022-08-18T10:51:34;51.15;;;30.77;;
71572;SDS011;59408;51.032;9.410;2022-08-18T10:54:29;49.22;;;30.48;;
71572;SDS011;59408;51.032;9.410;2022-08-18T10:57:18;50.92;;;29.98;;
71572;SDS011;59408;51.032;9.410;2022-08-18T10:59:53;47.93;;;29.63;;
71572;SDS011;59408;51.032;9.410;2022-08-18T11:02:45;49.53;;;29.95;;
71572;SDS011;59408;51.032;9.410;2022-08-18T11:05:59;47.85;;;28.25;;
71572;SDS011;59408;51.032;9.410;2022-08-18T11:08:28;48.63;;;29.38;;
71572;SDS011;59408;51.032;9.410;2022-08-18T11:11:06;47.72;;;29.10;;
71572;SDS011;59408;51.032;9.410;2022-08-18T11:13:57;50.97;;;29.30;;
71572;SDS011;59408;51.032;9.410;2022-08-18T11:16:38;46.43;;;29.37;;
71572;SDS011;59408;51.032;9.410;2022-08-18T11:19:15;48.53;;;30.77;;
71572;SDS011;59408;51.032;9.410;2022-08-18T11:21:44;50.38;;;30.15;;
71572;SDS011;59408;51.032;9.410;2022-08-18T11:24:17;49.75;;;30.25;;
71572;SDS011;59408;51.032;9.410;2022-08-18T11:26:47;49.63;;;29.90;;
71572;SDS011;59408;51.032;9.410;2022-08-18T11:29:26;52.50;;;31.53;;
71572;SDS011;59408;51.032;9.410;2022-08-18T11:31:59;51.00;;;30.17;;
71572;SDS011;59408;51.032;9.410;2022-08-18T11:34:30;53.28;;;31.90;;
71572;SDS011;59408;51.032;9.410;2022-08-18T11:37:03;52.03;;;31.17;;
71572;SDS011;59408;51.032;9.410;2022-08-18T11:39:40;51.83;;;31.67;;
71572;SDS011;59408;51.032;9.410;2022-08-18T11:42:14;51.07;;;31.73;;
71572;SDS011;59408;51.032;9.410;2022-08-18T11:44:52;49.03;;;30.93;;
71572;SDS011;59408;51.032;9.410;2022-08-18T11:47:22;46.67;;;30.25;;
71572;SDS011;59408;51.032;9.410;2022-08-18T11:49:56;53.63;;;31.30;;
71572;SDS011;59408;51.032;9.410;2022-08-18T11:52:31;50.63;;;30.85;;
71572;SDS011;59408;51.032;9.410;2022-08-18T11:55:02;49.80;;;31.05;;
71572;SDS011;59408;51.032;9.410;2022-08-18T11:57:49;49.43;;;30.53;;
71572;SDS011;59408;51.032;9.410;2022-08-18T12:00:39;49.47;;;30.80;;
71572;SDS011;59408;51.032;9.410;2022-08-18T12:03:28;48.90;;;31.40;;
71572;SDS011;59408;51.032;9.410;2022-08-18T12:06:09;47.60;;;28.85;;
71572;SDS011;59408;51.032;9.410;2022-08-18T12:08:59;46.47;;;28.25;;
71572;SDS011;59408;51.032;9.410;2022-08-18T12:11:30;46.10;;;28.83;;
71572;SDS011;59408;51.032;9.410;2022-08-18T12:14:03;44.75;;;28.38;;
71572;SDS011;59408;51.032;9.410;2022-08-18T12:16:52;43.20;;;27.13;;
71572;SDS011;59408;51.032;9.410;2022-08-18T12:19:20;43.15;;;28.15;;
71572;SDS011;59408;51.032;9.410;2022-08-18T12:21:50;42.05;;;26.85;;
71572;SDS011;59408;51.032;9.410;2022-08-18T12:24:20;41.17;;;25.80;;
71572;SDS011;59408;51.032;9.410;2022-08-18T12:26:59;39.25;;;25.42;;
71572;SDS011;59408;51.032;9.410;2022-08-18T12:29:27;40.35;;;25.25;;
71572;SDS011;59408;51.032;9.410;2022-08-18T12:32:09;41.65;;;25.88;;
71572;SDS011;59408;51.032;9.410;2022-08-18T12:34:53;40.33;;;25.40;;
71572;SDS011;59408;51.032;9.410;2022-08-18T12:37:21;37.43;;;24.17;;
71572;SDS011;59408;51.032;9.410;2022-08-18T12:40:09;36.33;;;24.88;;
71572;SDS011;59408;51.032;9.410;2022-08-18T12:42:37;35.25;;;23.75;;
71572;SDS011;59408;51.032;9.410;2022-08-18T12:45:08;38.17;;;24.42;;
71572;SDS011;59408;51.032;9.410;2022-08-18T12:47:36;34.83;;;22.48;;
71572;SDS011;59408;51.032;9.410;2022-08-18T12:50:07;37.43;;;23.77;;
71572;SDS011;59408;51.032;9.410;2022-08-18T12:52:35;32.45;;;22.85;;
71572;SDS011;59408;51.032;9.410;2022-08-18T12:55:04;34.45;;;23.58;;
71572;SDS011;59408;51.032;9.410;2022-08-18T12:57:46;34.42;;;22.10;;
71572;SDS011;59408;51.032;9.410;2022-08-18T13:00:20;34.58;;;22.83;;
71572;SDS011;59408;51.032;9.410;2022-08-18T13:02:54;31.83;;;21.30;;
71572;SDS011;59408;51.032;9.410;2022-08-18T13:05:22;30.00;;;21.10;;
71572;SDS011;59408;51.032;9.410;2022-08-18T13:07:55;27.33;;;19.48;;
71572;SDS011;59408;51.032;9.410;2022-08-18T13:10:24;29.67;;;19.58;;
71572;SDS011;59408;51.032;9.410;2022-08-18T13:13:10;26.50;;;18.42;;
71572;SDS011;59408;51.032;9.410;2022-08-18T13:15:39;28.00;;;18.20;;
71572;SDS011;59408;51.032;9.410;2022-08-18T13:18:23;23.83;;;17.02;;
71572;SDS011;59408;51.032;9.410;2022-08-18T13:20:54;26.33;;;18.17;;
71572;SDS011;59408;51.032;9.410;2022-08-18T13:23:21;25.92;;;17.90;;
71572;SDS011;59408;51.032;9.410;2022-08-18T13:25:50;22.80;;;16.58;;
71572;SDS011;59408;51.032;9.410;2022-08-18T13:28:27;22.60;;;16.23;;
71572;SDS011;59408;51.032;9.410;2022-08-18T13:30:57;22.73;;;16.73;;
71572;SDS011;59408;51.032;9.410;2022-08-18T13:33:24;24.33;;;16.85;;
71572;SDS011;59408;51.032;9.410;2022-08-18T13:36:10;23.77;;;16.73;;
71572;SDS011;59408;51.032;9.410;2022-08-18T13:38:37;23.50;;;16.77;;
71572;SDS011;59408;51.032;9.410;2022-08-18T13:41:04;24.50;;;17.67;;
71572;SDS011;59408;51.032;9.410;2022-08-18T13:43:32;25.58;;;17.20;;
71572;SDS011;59408;51.032;9.410;2022-08-18T13:46:02;24.20;;;17.20;;
71572;SDS011;59408;51.032;9.410;2022-08-18T13:48:30;25.30;;;16.10;;
71572;SDS011;59408;51.032;9.410;2022-08-18T13:50:57;28.35;;;19.63;;
71572;SDS011;59408;51.032;9.410;2022-08-18T13:53:27;25.07;;;18.13;;
71572;SDS011;59408;51.032;9.410;2022-08-18T13:55:57;28.77;;;20.00;;
71572;SDS011;59408;51.032;9.410;2022-08-18T13:58:24;25.67;;;18.25;;
71572;SDS011;59408;51.032;9.410;2022-08-18T14:00:55;22.88;;;16.10;;
71572;SDS011;59408;51.032;9.410;2022-08-18T14:03:44;25.23;;;17.27;;
71572;SDS011;59408;51.032;9.410;2022-08-18T14:06:13;28.33;;;19.67;;
71572;SDS011;59408;51.032;9.410;2022-08-18T14:08:40;26.17;;;19.05;;
71572;SDS011;59408;51.032;9.410;2022-08-18T14:11:07;23.00;;;17.15;;
71572;SDS011;59408;51.032;9.410;2022-08-18T14:13:34;23.52;;;17.27;;
71572;SDS011;59408;51.032;9.410;2022-08-18T14:16:09;26.38;;;18.48;;
71572;SDS011;59408;51.032;9.410;2022-08-18T14:18:41;25.70;;;17.83;;
71572;SDS011;59408;51.032;9.410;2022-08-18T14:21:12;23.20;;;16.80;;
71572;SDS011;59408;51.032;9.410;2022-08-18T14:23:38;21.40;;;16.05;;
71572;SDS011;59408;51.032;9.410;2022-08-18T14:26:16;24.70;;;16.45;;
71572;SDS011;59408;51.032;9.410;2022-08-18T14:28:44;22.75;;;15.68;;
71572;SDS011;59408;51.032;9.410;2022-08-18T14:31:12;23.60;;;16.27;;
71572;SDS011;59408;51.032;9.410;2022-08-18T14:33:45;21.70;;;14.82;;
71572;SDS011;59408;51.032;9.410;2022-08-18T14:36:18;24.65;;;16.13;;
71572;SDS011;59408;51.032;9.410;2022-08-18T14:38:55;22.25;;;14.82;;
71572;SDS011;59408;51.032;9.410;2022-08-18T14:41:22;22.92;;;16.10;;
71572;SDS011;59408;51.032;9.410;2022-08-18T14:43:52;22.57;;;16.17;;
71572;SDS011;59408;51.032;9.410;2022-08-18T14:46:39;23.00;;;16.08;;
71572;SDS011;59408;51.032;9.410;2022-08-18T14:49:06;22.50;;;16.05;;
71572;SDS011;59408;51.032;9.410;2022-08-18T14:51:34;23.42;;;16.70;;
71572;SDS011;59408;51.032;9.410;2022-08-18T14:54:01;22.55;;;16.08;;
71572;SDS011;59408;51.032;9.410;2022-08-18T14:56:28;21.57;;;15.30;;
71572;SDS011;59408;51.032;9.410;2022-08-18T14:59:04;19.38;;;14.98;;
71572;SDS011;59408;51.032;9.410;2022-08-18T15:01:31;21.30;;;14.55;;
71572;SDS011;59408;51.032;9.410;2022-08-18T15:04:00;20.10;;;14.23;;
71572;SDS011;59408;51.032;9.410;2022-08-18T15:06:46;22.15;;;14.40;;
71572;SDS011;59408;51.032;9.410;2022-08-18T15:09:22;22.80;;;15.17;;
71572;SDS011;59408;51.032;9.410;2022-08-18T15:11:52;20.17;;;14.60;;
71572;SDS011;59408;51.032;9.410;2022-08-18T15:14:19;21.75;;;15.55;;
71572;SDS011;59408;51.032;9.410;2022-08-18T15:16:51;22.05;;;15.20;;
71572;SDS011;59408;51.032;9.410;2022-08-18T15:19:18;21.80;;;15.50;;
71572;SDS011;59408;51.032;9.410;2022-08-18T15:22:06;21.63;;;14.77;;
71572;SDS011;59408;51.032;9.410;2022-08-18T15:24:37;21.15;;;15.02;;
71572;SDS011;59408;51.032;9.410;2022-08-18T15:27:05;19.67;;;14.35;;
71572;SDS011;59408;51.032;9.410;2022-08-18T15:29:44;20.10;;;15.00;;
71572;SDS011;59408;51.032;9.410;2022-08-18T15:32:11;22.90;;;15.38;;